Time;durP1;ratioP1;P1;durP2;ratioP2;P2;SDS_P1;SDS_P2;PMS_P1;PMS_P2;Temp;Humidity;BMP_temperature;BMP_pressure;BME280_temperature;BME280_humidity;BME280_pressure;Samples;Min_cycle;Max_cycle;Signal;HPM_P1;HPM_P2
2022/12/16 00:01:32;;;;;;;;;;;;;;;18.09;36.60;100582.94;5149031;27;19935;-55
2022/12/16 00:03:58;;;;;;;;;;;;;;;18.07;36.75;100590.66;5130446;27;19923;-55
2022/12/16 00:06:28;;;;;;;;;;;;;;;18.07;36.64;100585.97;5149051;27;19970;-54
2022/12/16 00:08:53;;;;;;;;;;;;;;;18.08;36.63;100593.13;5130152;27;20270;-55
2022/12/16 00:11:20;;;;;;;;;;;;;;;18.08;36.78;100581.28;5152757;27;19939;-55
2022/12/16 00:13:46;;;;;;;;;;;;;;;18.08;36.58;100584.06;5152914;27;19923;-55
2022/12/16 00:16:12;;;;;;;;;;;;;;;18.08;36.70;100589.56;5152539;27;19973;-55
2022/12/16 00:18:38;;;;;;;;;;;;;;;18.09;36.65;100588.44;5133512;27;20054;-55
2022/12/16 00:21:04;;;;;;;;;;;;;;;18.08;36.63;100589.56;5152542;27;20434;-55
2022/12/16 00:23:29;;;;;;;;;;;;;;;18.07;36.59;100585.97;5134023;27;19959;-55
2022/12/16 00:25:56;;;;;;;;;;;;;;;18.06;36.66;100584.34;5152093;27;19927;-55
2022/12/16 00:28:21;;;;;;;;;;;;;;;18.08;36.71;100586.81;5151835;27;20334;-55
2022/12/16 00:30:48;;;;;;;;;;;;;;;18.07;36.71;100588.75;5151805;27;19934;-54
2022/12/16 00:33:13;;;;;;;;;;;;;;;18.06;36.75;100592.59;5132769;27;20016;-55
2022/12/16 00:35:39;;;;;;;;;;;;;;;18.07;36.71;100594.25;5173190;27;19930;-55
2022/12/16 00:38:11;;;;;;;;;;;;;;;18.05;36.63;100591.78;5166209;27;19934;-55
2022/12/16 00:40:36;;;;;;;;;;;;;;;18.05;36.74;100591.78;5147337;27;19923;-55
2022/12/16 00:43:02;;;;;;;;;;;;;;;18.06;36.63;100595.38;5131547;28;19934;-55
2022/12/16 00:45:28;;;;;;;;;;;;;;;18.05;36.73;100597.31;5138588;27;19927;-55
2022/12/16 00:47:53;;;;;;;;;;;;;;;18.06;36.62;100592.59;5133201;27;19930;-55
2022/12/16 00:50:20;;;;;;;;;;;;;;;18.05;36.56;100590.97;5146536;27;19938;-55
2022/12/16 00:52:46;;;;;;;;;;;;;;;18.05;36.63;100596.47;5131220;28;19927;-55
2022/12/16 00:55:12;;;;;;;;;;;;;;;18.05;36.75;100593.72;5112890;28;20383;-55
2022/12/16 00:57:37;;;;;;;;;;;;;;;18.05;36.66;100591.78;5130893;28;19946;-55
2022/12/16 01:00:04;;;;;;;;;;;;;;;18.04;36.58;100590.13;5143442;27;19934;-54
2022/12/16 01:02:29;;;;;;;;;;;;;;;18.04;36.69;100592.88;5151649;27;19962;-55
2022/12/16 01:04:55;;;;;;;;;;;;;;;18.04;36.73;100592.88;5132998;27;19968;-55
2022/12/16 01:07:21;;;;;;;;;;;;;;;18.05;36.63;100599.22;5132900;27;19928;-55
2022/12/16 01:09:46;;;;;;;;;;;;;;;18.05;36.63;100596.47;5151067;27;19923;-55
2022/12/16 01:12:12;;;;;;;;;;;;;;;18.04;36.85;100597.56;5151757;27;19927;-55
2022/12/16 01:14:37;;;;;;;;;;;;;;;18.03;36.63;100596.75;5151822;27;19945;-55
2022/12/16 01:17:03;;;;;;;;;;;;;;;18.04;36.66;100608.59;5151550;27;20290;-55
2022/12/16 01:19:29;;;;;;;;;;;;;;;18.04;36.63;100605.81;5151033;27;19923;-55
2022/12/16 01:21:54;;;;;;;;;;;;;;;18.05;36.75;100615.75;5151665;27;19934;-55
2022/12/16 01:24:20;;;;;;;;;;;;;;;18.04;36.56;100611.34;5151262;27;20348;-55
2022/12/16 01:26:45;;;;;;;;;;;;;;;18.03;36.67;100617.97;5151568;27;19923;-55
2022/12/16 01:29:11;;;;;;;;;;;;;;;18.04;36.48;100614.09;5150820;27;19934;-54
2022/12/16 01:31:37;;;;;;;;;;;;;;;18.03;36.75;100621.53;5150796;27;20270;-54
2022/12/16 01:34:02;;;;;;;;;;;;;;;18.04;36.66;100614.09;5163004;27;19923;-55
2022/12/16 01:36:28;;;;;;;;;;;;;;;18.03;36.59;100616.03;5172213;27;20349;-55
2022/12/16 01:38:54;;;;;;;;;;;;;;;18.03;36.57;100624.28;5157255;27;19930;-55
2022/12/16 01:41:20;;;;;;;;;;;;;;;18.03;36.67;100628.97;5150798;27;19968;-55
2022/12/16 01:43:45;;;;;;;;;;;;;;;18.02;36.73;100627.34;5151200;27;19930;-55
2022/12/16 01:49:03;;;;;;;;;;;;;;;18.03;36.80;100638.06;5187571;27;19933;-55
2022/12/16 01:51:35;;;;;;;;;;;;;;;18.02;36.69;100638.38;5159110;27;20406;-55
2022/12/16 01:54:06;;;;;;;;;;;;;;;18.02;36.75;100639.19;5167645;27;19957;-55
2022/12/16 01:56:32;;;;;;;;;;;;;;;18.02;36.53;100639.19;5166750;27;20022;-55
2022/12/16 01:58:58;;;;;;;;;;;;;;;18.02;36.66;100639.19;5150287;27;19923;-55
2022/12/16 02:01:23;;;;;;;;;;;;;;;18.03;36.73;100651.03;5178075;27;20001;-55
2022/12/16 02:03:49;;;;;;;;;;;;;;;18.01;36.65;100659.59;5150423;27;19996;-55
2022/12/16 02:06:15;;;;;;;;;;;;;;;18.02;36.67;100652.97;5145636;27;19927;-55
2022/12/16 02:08:40;;;;;;;;;;;;;;;18.03;36.58;100653.78;5146254;27;19927;-55
2022/12/16 02:11:15;;;;;;;;;;;;;;;18.01;36.71;100647.75;5146014;27;20324;-55
2022/12/16 02:13:46;;;;;;;;;;;;;;;18.02;36.61;100641.13;5146197;27;19962;-54
2022/12/16 02:16:32;;;;;;;;;;;;;;;18.02;36.62;100641.13;5146029;27;19959;-54
2022/12/16 02:19:17;;;;;;;;;;;;;;;18.01;36.88;100636.72;5130077;27;19923;-55
2022/12/16 02:21:48;;;;;;;;;;;;;;;18.02;36.70;100644.69;5130362;27;19924;-55
2022/12/16 02:24:33;;;;;;;;;;;;;;;18.01;36.68;100645.81;5146200;27;20369;-55
2022/12/16 02:27:19;;;;;;;;;;;;;;;18.01;36.49;100643.06;5130293;27;20246;-55
2022/12/16 02:29:52;;;;;;;;;;;;;;;18.02;36.65;100646.63;5129845;27;19955;-55
2022/12/16 02:32:25;;;;;;;;;;;;;;;18.01;36.68;100642.22;5145799;27;19959;-54
2022/12/16 02:34:54;;;;;;;;;;;;;;;18.01;36.76;100642.22;5142913;27;20007;-55
2022/12/16 02:37:40;;;;;;;;;;;;;;;18.00;36.59;100649.69;5166249;27;19927;-55
2022/12/16 02:40:08;;;;;;;;;;;;;;;18.00;36.76;100652.44;5131641;27;20237;-55
2022/12/16 02:42:35;;;;;;;;;;;;;;;18.00;36.40;100646.91;5145948;27;20008;-55
2022/12/16 02:45:02;;;;;;;;;;;;;;;18.00;36.67;100657.09;5145240;27;19975;-55
2022/12/16 02:47:28;;;;;;;;;;;;;;;18.00;36.60;100652.44;5145415;27;19965;-54
2022/12/16 02:49:54;;;;;;;;;;;;;;;18.00;36.59;100654.34;5145036;27;19923;-55
2022/12/16 02:52:20;;;;;;;;;;;;;;;17.99;36.76;100648.00;5145832;27;19976;-54
2022/12/16 02:54:46;;;;;;;;;;;;;;;17.99;36.69;100653.50;5145101;27;20361;-54
2022/12/16 02:57:32;;;;;;;;;;;;;;;17.99;36.74;100653.50;5145650;27;19923;-54
2022/12/16 03:00:01;;;;;;;;;;;;;;;17.99;36.71;100650.75;5116746;28;19955;-55
2022/12/16 03:02:29;;;;;;;;;;;;;;;17.99;36.78;100644.41;5112950;28;19924;-55
2022/12/16 03:04:57;;;;;;;;;;;;;;;17.99;36.67;100652.69;5113075;28;19927;-55
2022/12/16 03:07:23;;;;;;;;;;;;;;;17.99;36.76;100647.19;5113085;28;20273;-55
2022/12/16 03:09:48;;;;;;;;;;;;;;;17.98;36.61;100640.84;5112452;28;20423;-55
2022/12/16 03:12:15;;;;;;;;;;;;;;;17.98;36.69;100645.53;5131031;27;20379;-54
2022/12/16 03:14:41;;;;;;;;;;;;;;;17.99;36.65;100649.94;5131174;27;20393;-54
2022/12/16 03:17:06;;;;;;;;;;;;;;;17.99;36.70;100647.19;5112991;28;20388;-55
2022/12/16 03:19:32;;;;;;;;;;;;;;;17.98;36.71;100646.34;5134793;27;20026;-55
2022/12/16 03:21:59;;;;;;;;;;;;;;;17.99;36.62;100649.94;5119343;28;20265;-55
2022/12/16 03:24:25;;;;;;;;;;;;;;;17.99;36.55;100656.25;5112085;28;19923;-54
2022/12/16 03:27:10;;;;;;;;;;;;;;;17.98;36.51;100651.88;5130202;28;20288;-55
2022/12/16 03:29:46;;;;;;;;;;;;;;;17.98;36.60;100651.03;5119842;27;19954;-55
2022/12/16 03:32:14;;;;;;;;;;;;;;;17.99;36.58;100663.72;5116875;28;19931;-55
2022/12/16 03:34:42;;;;;;;;;;;;;;;17.99;36.71;100661.78;5148294;27;20298;-54
2022/12/16 03:37:08;;;;;;;;;;;;;;;17.99;36.74;100669.22;5151749;27;19958;-54
2022/12/16 03:39:35;;;;;;;;;;;;;;;17.98;36.60;100679.41;5137585;27;19966;-55
2022/12/16 03:42:01;;;;;;;;;;;;;;;17.97;36.65;100672.25;5130680;27;20529;-54
2022/12/16 03:44:26;;;;;;;;;;;;;;;17.97;36.58;100665.94;5130719;28;19931;-55
2022/12/16 03:46:52;;;;;;;;;;;;;;;17.97;36.69;100666.75;5130125;27;19923;-55
2022/12/16 03:49:18;;;;;;;;;;;;;;;17.97;36.65;100666.75;5131792;27;20376;-55
2022/12/16 03:51:43;;;;;;;;;;;;;;;17.98;36.60;100664.81;5139141;27;19923;-55
2022/12/16 03:54:09;;;;;;;;;;;;;;;17.97;36.61;100668.69;5130985;28;20068;-55
2022/12/16 03:56:34;;;;;;;;;;;;;;;17.97;36.59;100665.94;5130753;28;19930;-55
2022/12/16 03:59:00;;;;;;;;;;;;;;;17.95;36.63;100674.47;5129996;27;19928;-55
2022/12/16 04:01:25;;;;;;;;;;;;;;;17.97;36.79;100669.50;5129900;27;19923;-55
2022/12/16 04:03:51;;;;;;;;;;;;;;;17.95;36.70;100677.22;5130863;27;19934;-55
2022/12/16 04:06:17;;;;;;;;;;;;;;;17.96;36.55;100678.88;5130362;28;19923;-54
2022/12/16 04:08:45;;;;;;;;;;;;;;;17.98;36.43;100681.34;5130165;27;19937;-55
2022/12/16 04:25:06;;;;;;;;;;;;;;;17.95;36.63;100706.69;5114596;28;19973;-55
2022/12/16 04:27:31;;;;;;;;;;;;;;;17.96;36.64;100702.84;5129883;28;19970;-55
2022/12/16 04:30:28;;;;;;;;;;;;;;;17.96;36.55;100700.06;5134658;27;20376;-55
